sensor_id;sensor_type;location;lat;lon;timestamp;P1;durP1;ratioP1;P2;durP2;ratioP2
68050;SDS011;54839;51.364;7.246;2023-11-21T00:01:45;19.80;;;12.93;;
68050;SDS011;54839;51.364;7.246;2023-11-21T00:04:10;19.43;;;13.40;;
68050;SDS011;54839;51.364;7.246;2023-11-21T00:06:36;20.43;;;13.77;;
68050;SDS011;54839;51.364;7.246;2023-11-21T00:09:02;21.67;;;12.03;;
68050;SDS011;54839;51.364;7.246;2023-11-21T00:11:27;17.30;;;12.37;;
68050;SDS011;54839;51.364;7.246;2023-11-21T00:13:54;21.00;;;13.43;;
68050;SDS011;54839;51.364;7.246;2023-11-21T00:16:19;18.03;;;12.50;;
68050;SDS011;54839;51.364;7.246;2023-11-21T00:18:47;15.83;;;12.43;;
68050;SDS011;54839;51.364;7.246;2023-11-21T00:21:12;18.30;;;12.87;;
68050;SDS011;54839;51.364;7.246;2023-11-21T00:23:38;16.97;;;11.33;;
68050;SDS011;54839;51.364;7.246;2023-11-21T00:26:03;15.43;;;11.07;;
68050;SDS011;54839;51.364;7.246;2023-11-21T00:28:29;13.10;;;10.87;;
68050;SDS011;54839;51.364;7.246;2023-11-21T00:30:55;14.37;;;10.67;;
68050;SDS011;54839;51.364;7.246;2023-11-21T00:33:20;18.67;;;12.90;;
68050;SDS011;54839;51.364;7.246;2023-11-21T00:35:46;16.30;;;12.67;;
68050;SDS011;54839;51.364;7.246;2023-11-21T00:38:11;18.77;;;11.27;;
68050;SDS011;54839;51.364;7.246;2023-11-21T00:40:37;17.80;;;12.00;;
68050;SDS011;54839;51.364;7.246;2023-11-21T00:43:02;21.27;;;12.30;;
68050;SDS011;54839;51.364;7.246;2023-11-21T00:45:28;15.03;;;12.63;;
68050;SDS011;54839;51.364;7.246;2023-11-21T00:47:54;16.63;;;12.63;;
68050;SDS011;54839;51.364;7.246;2023-11-21T00:50:19;20.33;;;12.10;;
68050;SDS011;54839;51.364;7.246;2023-11-21T00:52:47;16.23;;;12.03;;
68050;SDS011;54839;51.364;7.246;2023-11-21T00:55:13;22.97;;;12.17;;
68050;SDS011;54839;51.364;7.246;2023-11-21T00:57:38;16.63;;;12.27;;
68050;SDS011;54839;51.364;7.246;2023-11-21T01:00:05;15.73;;;11.47;;
68050;SDS011;54839;51.364;7.246;2023-11-21T01:02:38;14.30;;;12.00;;
68050;SDS011;54839;51.364;7.246;2023-11-21T01:05:04;13.57;;;11.33;;
68050;SDS011;54839;51.364;7.246;2023-11-21T01:07:32;11.63;;;10.33;;
68050;SDS011;54839;51.364;7.246;2023-11-21T01:09:58;16.23;;;11.23;;
68050;SDS011;54839;51.364;7.246;2023-11-21T01:12:24;13.03;;;10.63;;
68050;SDS011;54839;51.364;7.246;2023-11-21T01:14:50;14.20;;;10.87;;
68050;SDS011;54839;51.364;7.246;2023-11-21T01:17:15;18.93;;;12.27;;
68050;SDS011;54839;51.364;7.246;2023-11-21T01:19:41;13.73;;;10.57;;
68050;SDS011;54839;51.364;7.246;2023-11-21T01:22:07;16.00;;;10.33;;
68050;SDS011;54839;51.364;7.246;2023-11-21T01:24:33;17.90;;;10.90;;
68050;SDS011;54839;51.364;7.246;2023-11-21T01:26:59;15.23;;;11.20;;
68050;SDS011;54839;51.364;7.246;2023-11-21T01:29:24;19.67;;;10.50;;
68050;SDS011;54839;51.364;7.246;2023-11-21T01:31:50;16.60;;;9.97;;
68050;SDS011;54839;51.364;7.246;2023-11-21T01:34:16;12.80;;;11.20;;
68050;SDS011;54839;51.364;7.246;2023-11-21T01:36:42;17.00;;;10.83;;
68050;SDS011;54839;51.364;7.246;2023-11-21T01:39:07;12.67;;;10.20;;
68050;SDS011;54839;51.364;7.246;2023-11-21T01:41:33;15.87;;;11.57;;
68050;SDS011;54839;51.364;7.246;2023-11-21T01:44:00;13.53;;;10.50;;
68050;SDS011;54839;51.364;7.246;2023-11-21T01:46:25;13.17;;;10.70;;
68050;SDS011;54839;51.364;7.246;2023-11-21T01:48:51;18.73;;;10.40;;
68050;SDS011;54839;51.364;7.246;2023-11-21T01:51:18;13.47;;;11.20;;
68050;SDS011;54839;51.364;7.246;2023-11-21T01:53:44;14.97;;;11.43;;
68050;SDS011;54839;51.364;7.246;2023-11-21T01:56:11;12.97;;;11.07;;
68050;SDS011;54839;51.364;7.246;2023-11-21T01:58:37;17.77;;;10.90;;
68050;SDS011;54839;51.364;7.246;2023-11-21T02:01:04;14.93;;;10.67;;
68050;SDS011;54839;51.364;7.246;2023-11-21T02:03:30;16.67;;;10.33;;
68050;SDS011;54839;51.364;7.246;2023-11-21T02:05:56;13.27;;;11.07;;
68050;SDS011;54839;51.364;7.246;2023-11-21T02:08:21;14.77;;;11.60;;
68050;SDS011;54839;51.364;7.246;2023-11-21T02:10:47;15.77;;;11.53;;
68050;SDS011;54839;51.364;7.246;2023-11-21T02:13:13;12.87;;;11.57;;
68050;SDS011;54839;51.364;7.246;2023-11-21T02:15:38;13.07;;;9.93;;
68050;SDS011;54839;51.364;7.246;2023-11-21T02:18:04;12.63;;;10.27;;
68050;SDS011;54839;51.364;7.246;2023-11-21T02:20:31;14.63;;;9.17;;
68050;SDS011;54839;51.364;7.246;2023-11-21T02:22:59;14.70;;;11.70;;
68050;SDS011;54839;51.364;7.246;2023-11-21T02:25:25;18.83;;;12.20;;
68050;SDS011;54839;51.364;7.246;2023-11-21T02:27:57;12.40;;;11.07;;
68050;SDS011;54839;51.364;7.246;2023-11-21T02:30:24;12.30;;;10.27;;
68050;SDS011;54839;51.364;7.246;2023-11-21T02:32:53;11.73;;;10.40;;
68050;SDS011;54839;51.364;7.246;2023-11-21T02:35:19;13.97;;;11.20;;
68050;SDS011;54839;51.364;7.246;2023-11-21T02:37:46;14.80;;;10.13;;
68050;SDS011;54839;51.364;7.246;2023-11-21T02:40:12;15.53;;;10.77;;
68050;SDS011;54839;51.364;7.246;2023-11-21T02:42:41;16.30;;;9.90;;
68050;SDS011;54839;51.364;7.246;2023-11-21T02:45:07;14.57;;;9.50;;
68050;SDS011;54839;51.364;7.246;2023-11-21T02:47:33;16.53;;;10.93;;
68050;SDS011;54839;51.364;7.246;2023-11-21T02:49:59;18.43;;;12.40;;
68050;SDS011;54839;51.364;7.246;2023-11-21T02:52:24;17.80;;;10.87;;
68050;SDS011;54839;51.364;7.246;2023-11-21T02:54:50;14.67;;;11.70;;
68050;SDS011;54839;51.364;7.246;2023-11-21T02:57:16;17.90;;;12.80;;
68050;SDS011;54839;51.364;7.246;2023-11-21T02:59:41;16.00;;;11.03;;
68050;SDS011;54839;51.364;7.246;2023-11-21T03:02:07;12.43;;;9.87;;
68050;SDS011;54839;51.364;7.246;2023-11-21T03:04:35;15.50;;;11.00;;
68050;SDS011;54839;51.364;7.246;2023-11-21T03:07:01;17.77;;;11.20;;
68050;SDS011;54839;51.364;7.246;2023-11-21T03:09:26;16.93;;;12.13;;
68050;SDS011;54839;51.364;7.246;2023-11-21T03:11:52;16.57;;;11.80;;
68050;SDS011;54839;51.364;7.246;2023-11-21T03:14:18;18.10;;;10.40;;
68050;SDS011;54839;51.364;7.246;2023-11-21T03:16:44;16.37;;;11.97;;
68050;SDS011;54839;51.364;7.246;2023-11-21T03:19:10;15.73;;;11.60;;
68050;SDS011;54839;51.364;7.246;2023-11-21T03:21:36;19.67;;;11.90;;
68050;SDS011;54839;51.364;7.246;2023-11-21T03:24:02;16.67;;;10.87;;
68050;SDS011;54839;51.364;7.246;2023-11-21T03:26:28;19.73;;;10.97;;
68050;SDS011;54839;51.364;7.246;2023-11-21T03:28:54;18.70;;;10.70;;
68050;SDS011;54839;51.364;7.246;2023-11-21T03:31:20;18.33;;;12.50;;
68050;SDS011;54839;51.364;7.246;2023-11-21T03:33:46;20.67;;;12.23;;
68050;SDS011;54839;51.364;7.246;2023-11-21T03:36:12;12.93;;;10.60;;
68050;SDS011;54839;51.364;7.246;2023-11-21T03:38:39;19.90;;;12.17;;
68050;SDS011;54839;51.364;7.246;2023-11-21T03:41:06;21.60;;;12.60;;
68050;SDS011;54839;51.364;7.246;2023-11-21T03:43:32;19.53;;;11.40;;
68050;SDS011;54839;51.364;7.246;2023-11-21T03:45:57;19.20;;;12.33;;
68050;SDS011;54839;51.364;7.246;2023-11-21T03:48:23;27.43;;;15.13;;
68050;SDS011;54839;51.364;7.246;2023-11-21T03:50:48;24.30;;;13.10;;
68050;SDS011;54839;51.364;7.246;2023-11-21T03:53:14;18.83;;;12.43;;
68050;SDS011;54839;51.364;7.246;2023-11-21T03:55:39;24.80;;;13.30;;
68050;SDS011;54839;51.364;7.246;2023-11-21T03:58:05;25.30;;;13.90;;
68050;SDS011;54839;51.364;7.246;2023-11-21T04:00:30;24.63;;;14.80;;
68050;SDS011;54839;51.364;7.246;2023-11-21T04:02:56;16.50;;;12.80;;
68050;SDS011;54839;51.364;7.246;2023-11-21T04:05:22;23.83;;;11.67;;
68050;SDS011;54839;51.364;7.246;2023-11-21T04:07:51;18.00;;;13.10;;
68050;SDS011;54839;51.364;7.246;2023-11-21T04:10:17;23.17;;;13.37;;
68050;SDS011;54839;51.364;7.246;2023-11-21T04:12:43;29.50;;;14.27;;
68050;SDS011;54839;51.364;7.246;2023-11-21T04:15:09;23.50;;;12.43;;
68050;SDS011;54839;51.364;7.246;2023-11-21T04:17:35;18.53;;;11.33;;
68050;SDS011;54839;51.364;7.246;2023-11-21T04:20:02;15.93;;;11.40;;
68050;SDS011;54839;51.364;7.246;2023-11-21T04:22:31;17.63;;;11.63;;
68050;SDS011;54839;51.364;7.246;2023-11-21T04:24:56;16.87;;;12.77;;
68050;SDS011;54839;51.364;7.246;2023-11-21T04:27:22;16.50;;;11.77;;
68050;SDS011;54839;51.364;7.246;2023-11-21T04:29:48;18.47;;;10.60;;
68050;SDS011;54839;51.364;7.246;2023-11-21T04:32:13;17.03;;;12.97;;
68050;SDS011;54839;51.364;7.246;2023-11-21T04:34:39;22.00;;;12.07;;
68050;SDS011;54839;51.364;7.246;2023-11-21T04:37:04;16.33;;;11.30;;
68050;SDS011;54839;51.364;7.246;2023-11-21T04:39:31;19.50;;;12.67;;
68050;SDS011;54839;51.364;7.246;2023-11-21T04:41:57;29.70;;;14.83;;
68050;SDS011;54839;51.364;7.246;2023-11-21T04:44:22;21.27;;;10.63;;
68050;SDS011;54839;51.364;7.246;2023-11-21T04:46:48;21.33;;;12.57;;
68050;SDS011;54839;51.364;7.246;2023-11-21T04:49:14;20.63;;;13.07;;
68050;SDS011;54839;51.364;7.246;2023-11-21T04:51:40;21.53;;;13.57;;
68050;SDS011;54839;51.364;7.246;2023-11-21T04:54:05;20.53;;;14.43;;
68050;SDS011;54839;51.364;7.246;2023-11-21T04:56:31;15.43;;;11.17;;
68050;SDS011;54839;51.364;7.246;2023-11-21T04:58:56;21.63;;;12.90;;
68050;SDS011;54839;51.364;7.246;2023-11-21T05:01:22;18.40;;;12.70;;
68050;SDS011;54839;51.364;7.246;2023-11-21T05:03:47;17.97;;;12.63;;
68050;SDS011;54839;51.364;7.246;2023-11-21T05:06:13;24.00;;;14.83;;
68050;SDS011;54839;51.364;7.246;2023-11-21T05:08:40;24.77;;;14.07;;
68050;SDS011;54839;51.364;7.246;2023-11-21T05:11:05;26.63;;;13.07;;
68050;SDS011;54839;51.364;7.246;2023-11-21T05:13:33;24.03;;;13.80;;
68050;SDS011;54839;51.364;7.246;2023-11-21T05:15:59;24.40;;;13.30;;
68050;SDS011;54839;51.364;7.246;2023-11-21T05:18:24;23.73;;;13.33;;
68050;SDS011;54839;51.364;7.246;2023-11-21T05:20:54;22.93;;;14.97;;
68050;SDS011;54839;51.364;7.246;2023-11-21T05:23:20;23.67;;;13.80;;
68050;SDS011;54839;51.364;7.246;2023-11-21T05:25:46;29.73;;;16.23;;
68050;SDS011;54839;51.364;7.246;2023-11-21T05:28:12;22.80;;;13.97;;
68050;SDS011;54839;51.364;7.246;2023-11-21T05:30:38;30.03;;;14.30;;
68050;SDS011;54839;51.364;7.246;2023-11-21T05:33:04;23.97;;;14.63;;
68050;SDS011;54839;51.364;7.246;2023-11-21T05:35:30;23.13;;;14.13;;
68050;SDS011;54839;51.364;7.246;2023-11-21T05:37:56;24.93;;;14.10;;
68050;SDS011;54839;51.364;7.246;2023-11-21T05:40:21;25.23;;;14.03;;
68050;SDS011;54839;51.364;7.246;2023-11-21T05:42:48;23.43;;;14.20;;
68050;SDS011;54839;51.364;7.246;2023-11-21T05:45:13;25.13;;;14.20;;
68050;SDS011;54839;51.364;7.246;2023-11-21T05:47:41;21.93;;;14.40;;
68050;SDS011;54839;51.364;7.246;2023-11-21T05:50:08;26.63;;;15.07;;
68050;SDS011;54839;51.364;7.246;2023-11-21T05:52:37;20.90;;;13.27;;
68050;SDS011;54839;51.364;7.246;2023-11-21T05:55:04;23.67;;;13.63;;
68050;SDS011;54839;51.364;7.246;2023-11-21T05:57:32;25.63;;;15.43;;
68050;SDS011;54839;51.364;7.246;2023-11-21T06:00:05;21.27;;;14.60;;
68050;SDS011;54839;51.364;7.246;2023-11-21T06:02:45;26.33;;;13.40;;
68050;SDS011;54839;51.364;7.246;2023-11-21T06:05:11;25.83;;;14.90;;
68050;SDS011;54839;51.364;7.246;2023-11-21T06:07:36;32.37;;;14.53;;
68050;SDS011;54839;51.364;7.246;2023-11-21T06:10:03;28.10;;;15.20;;
68050;SDS011;54839;51.364;7.246;2023-11-21T06:12:36;21.13;;;13.60;;
68050;SDS011;54839;51.364;7.246;2023-11-21T06:15:02;28.90;;;15.93;;
68050;SDS011;54839;51.364;7.246;2023-11-21T06:17:31;25.80;;;15.30;;
68050;SDS011;54839;51.364;7.246;2023-11-21T06:19:57;24.87;;;16.40;;
68050;SDS011;54839;51.364;7.246;2023-11-21T06:22:22;28.33;;;15.10;;
68050;SDS011;54839;51.364;7.246;2023-11-21T06:24:48;23.50;;;13.97;;
68050;SDS011;54839;51.364;7.246;2023-11-21T06:27:13;25.37;;;14.60;;
68050;SDS011;54839;51.364;7.246;2023-11-21T06:29:39;24.43;;;14.27;;
68050;SDS011;54839;51.364;7.246;2023-11-21T06:32:07;28.73;;;18.00;;
68050;SDS011;54839;51.364;7.246;2023-11-21T06:34:33;25.40;;;14.33;;
68050;SDS011;54839;51.364;7.246;2023-11-21T06:36:59;27.53;;;16.17;;
68050;SDS011;54839;51.364;7.246;2023-11-21T06:39:24;24.43;;;13.80;;
68050;SDS011;54839;51.364;7.246;2023-11-21T06:41:50;22.40;;;15.13;;
68050;SDS011;54839;51.364;7.246;2023-11-21T06:44:15;25.33;;;16.10;;
68050;SDS011;54839;51.364;7.246;2023-11-21T06:46:41;27.27;;;17.63;;
68050;SDS011;54839;51.364;7.246;2023-11-21T06:49:07;28.87;;;15.20;;
68050;SDS011;54839;51.364;7.246;2023-11-21T06:51:33;28.47;;;15.77;;
68050;SDS011;54839;51.364;7.246;2023-11-21T06:53:59;23.83;;;15.30;;
68050;SDS011;54839;51.364;7.246;2023-11-21T06:56:24;27.03;;;15.80;;
68050;SDS011;54839;51.364;7.246;2023-11-21T06:58:50;25.07;;;15.00;;
68050;SDS011;54839;51.364;7.246;2023-11-21T07:01:19;29.60;;;15.83;;
68050;SDS011;54839;51.364;7.246;2023-11-21T07:03:45;26.48;;;17.00;;
68050;SDS011;54839;51.364;7.246;2023-11-21T07:06:11;29.73;;;16.23;;
68050;SDS011;54839;51.364;7.246;2023-11-21T07:08:36;24.23;;;16.90;;
68050;SDS011;54839;51.364;7.246;2023-11-21T07:11:02;21.63;;;14.30;;
68050;SDS011;54839;51.364;7.246;2023-11-21T07:13:29;25.43;;;14.77;;
68050;SDS011;54839;51.364;7.246;2023-11-21T07:15:55;29.37;;;15.33;;
68050;SDS011;54839;51.364;7.246;2023-11-21T07:18:21;26.00;;;14.37;;
68050;SDS011;54839;51.364;7.246;2023-11-21T07:20:46;26.40;;;13.37;;
68050;SDS011;54839;51.364;7.246;2023-11-21T07:23:12;25.17;;;14.57;;
68050;SDS011;54839;51.364;7.246;2023-11-21T07:25:37;23.87;;;14.57;;
68050;SDS011;54839;51.364;7.246;2023-11-21T07:28:03;24.97;;;14.77;;
68050;SDS011;54839;51.364;7.246;2023-11-21T07:30:30;20.90;;;14.43;;
68050;SDS011;54839;51.364;7.246;2023-11-21T07:32:56;25.30;;;15.33;;
68050;SDS011;54839;51.364;7.246;2023-11-21T07:35:21;24.80;;;14.90;;
68050;SDS011;54839;51.364;7.246;2023-11-21T07:37:47;20.63;;;14.20;;
68050;SDS011;54839;51.364;7.246;2023-11-21T07:40:14;32.10;;;15.50;;
68050;SDS011;54839;51.364;7.246;2023-11-21T07:42:39;21.60;;;13.17;;
68050;SDS011;54839;51.364;7.246;2023-11-21T07:45:07;26.20;;;16.40;;
68050;SDS011;54839;51.364;7.246;2023-11-21T07:47:33;21.50;;;15.23;;
68050;SDS011;54839;51.364;7.246;2023-11-21T07:49:59;20.37;;;14.37;;
68050;SDS011;54839;51.364;7.246;2023-11-21T07:52:26;26.93;;;16.20;;
68050;SDS011;54839;51.364;7.246;2023-11-21T07:54:51;27.97;;;15.63;;
68050;SDS011;54839;51.364;7.246;2023-11-21T07:57:17;24.30;;;16.07;;
68050;SDS011;54839;51.364;7.246;2023-11-21T07:59:42;26.30;;;14.60;;
68050;SDS011;54839;51.364;7.246;2023-11-21T08:02:09;25.63;;;17.63;;
68050;SDS011;54839;51.364;7.246;2023-11-21T08:04:35;28.73;;;17.00;;
68050;SDS011;54839;51.364;7.246;2023-11-21T08:07:01;27.60;;;15.63;;
68050;SDS011;54839;51.364;7.246;2023-11-21T08:09:27;27.47;;;16.73;;
68050;SDS011;54839;51.364;7.246;2023-11-21T08:11:52;27.17;;;18.23;;
68050;SDS011;54839;51.364;7.246;2023-11-21T08:14:18;30.27;;;16.83;;
68050;SDS011;54839;51.364;7.246;2023-11-21T08:16:45;26.57;;;16.57;;
68050;SDS011;54839;51.364;7.246;2023-11-21T08:19:11;27.03;;;17.13;;
68050;SDS011;54839;51.364;7.246;2023-11-21T08:21:36;20.90;;;14.80;;
68050;SDS011;54839;51.364;7.246;2023-11-21T08:24:04;25.23;;;16.70;;
68050;SDS011;54839;51.364;7.246;2023-11-21T08:26:30;25.87;;;16.23;;
68050;SDS011;54839;51.364;7.246;2023-11-21T08:28:56;22.43;;;15.53;;
68050;SDS011;54839;51.364;7.246;2023-11-21T08:31:25;24.53;;;15.93;;
68050;SDS011;54839;51.364;7.246;2023-11-21T08:33:51;22.43;;;16.07;;
68050;SDS011;54839;51.364;7.246;2023-11-21T08:36:16;23.30;;;16.37;;
68050;SDS011;54839;51.364;7.246;2023-11-21T08:38:42;30.13;;;17.73;;
68050;SDS011;54839;51.364;7.246;2023-11-21T08:41:07;25.33;;;15.87;;
68050;SDS011;54839;51.364;7.246;2023-11-21T08:43:34;40.77;;;22.57;;
68050;SDS011;54839;51.364;7.246;2023-11-21T08:46:00;28.40;;;18.27;;
68050;SDS011;54839;51.364;7.246;2023-11-21T08:48:26;49.43;;;24.43;;
68050;SDS011;54839;51.364;7.246;2023-11-21T08:50:53;43.33;;;25.87;;
68050;SDS011;54839;51.364;7.246;2023-11-21T08:53:19;46.13;;;27.63;;
68050;SDS011;54839;51.364;7.246;2023-11-21T08:55:44;54.87;;;30.50;;
68050;SDS011;54839;51.364;7.246;2023-11-21T08:58:10;50.40;;;28.43;;
68050;SDS011;54839;51.364;7.246;2023-11-21T09:00:37;60.50;;;31.33;;
68050;SDS011;54839;51.364;7.246;2023-11-21T09:03:05;49.23;;;31.50;;
68050;SDS011;54839;51.364;7.246;2023-11-21T09:05:33;57.27;;;30.77;;
68050;SDS011;54839;51.364;7.246;2023-11-21T09:08:03;48.10;;;27.73;;
68050;SDS011;54839;51.364;7.246;2023-11-21T09:10:28;62.67;;;31.17;;
68050;SDS011;54839;51.364;7.246;2023-11-21T09:12:54;58.73;;;27.87;;
68050;SDS011;54839;51.364;7.246;2023-11-21T09:15:19;57.63;;;27.67;;
68050;SDS011;54839;51.364;7.246;2023-11-21T09:17:45;50.80;;;29.10;;
68050;SDS011;54839;51.364;7.246;2023-11-21T09:20:11;51.40;;;28.77;;
68050;SDS011;54839;51.364;7.246;2023-11-21T09:22:37;54.67;;;25.83;;
68050;SDS011;54839;51.364;7.246;2023-11-21T09:25:02;55.63;;;29.03;;
68050;SDS011;54839;51.364;7.246;2023-11-21T09:27:31;55.03;;;28.30;;
68050;SDS011;54839;51.364;7.246;2023-11-21T09:29:57;52.17;;;29.67;;
68050;SDS011;54839;51.364;7.246;2023-11-21T09:32:23;60.27;;;29.37;;
68050;SDS011;54839;51.364;7.246;2023-11-21T09:34:49;61.13;;;29.77;;
68050;SDS011;54839;51.364;7.246;2023-11-21T09:37:15;56.33;;;26.57;;
68050;SDS011;54839;51.364;7.246;2023-11-21T09:39:41;54.07;;;31.60;;
68050;SDS011;54839;51.364;7.246;2023-11-21T09:44:36;47.80;;;26.60;;
68050;SDS011;54839;51.364;7.246;2023-11-21T09:47:21;53.97;;;27.60;;
68050;SDS011;54839;51.364;7.246;2023-11-21T09:49:48;48.37;;;26.93;;
68050;SDS011;54839;51.364;7.246;2023-11-21T09:52:18;37.87;;;21.80;;
68050;SDS011;54839;51.364;7.246;2023-11-21T09:54:50;43.30;;;24.53;;
68050;SDS011;54839;51.364;7.246;2023-11-21T09:57:18;39.03;;;23.17;;
68050;SDS011;54839;51.364;7.246;2023-11-21T09:59:46;41.70;;;24.13;;
68050;SDS011;54839;51.364;7.246;2023-11-21T10:02:15;40.27;;;22.93;;
68050;SDS011;54839;51.364;7.246;2023-11-21T10:04:43;41.80;;;21.83;;
68050;SDS011;54839;51.364;7.246;2023-11-21T10:07:10;38.73;;;22.80;;
68050;SDS011;54839;51.364;7.246;2023-11-21T10:09:40;43.07;;;24.40;;
68050;SDS011;54839;51.364;7.246;2023-11-21T10:12:06;37.43;;;20.70;;
68050;SDS011;54839;51.364;7.246;2023-11-21T10:14:33;35.63;;;21.87;;
68050;SDS011;54839;51.364;7.246;2023-11-21T10:17:02;32.97;;;20.10;;
68050;SDS011;54839;51.364;7.246;2023-11-21T10:19:28;32.50;;;20.33;;
68050;SDS011;54839;51.364;7.246;2023-11-21T10:21:55;41.53;;;20.20;;
68050;SDS011;54839;51.364;7.246;2023-11-21T10:24:22;42.23;;;23.40;;
68050;SDS011;54839;51.364;7.246;2023-11-21T10:26:48;32.13;;;19.97;;
68050;SDS011;54839;51.364;7.246;2023-11-21T10:29:15;32.73;;;20.90;;
68050;SDS011;54839;51.364;7.246;2023-11-21T10:31:42;36.23;;;21.13;;
68050;SDS011;54839;51.364;7.246;2023-11-21T10:34:13;37.03;;;19.80;;
68050;SDS011;54839;51.364;7.246;2023-11-21T10:36:43;32.27;;;19.43;;
68050;SDS011;54839;51.364;7.246;2023-11-21T10:39:09;29.50;;;18.77;;
68050;SDS011;54839;51.364;7.246;2023-11-21T10:41:38;35.60;;;19.53;;
68050;SDS011;54839;51.364;7.246;2023-11-21T10:44:04;30.13;;;17.93;;
68050;SDS011;54839;51.364;7.246;2023-11-21T10:46:32;28.77;;;17.80;;
68050;SDS011;54839;51.364;7.246;2023-11-21T10:48:58;32.20;;;17.60;;
68050;SDS011;54839;51.364;7.246;2023-11-21T10:51:25;36.90;;;18.63;;
68050;SDS011;54839;51.364;7.246;2023-11-21T10:53:54;30.50;;;17.40;;
68050;SDS011;54839;51.364;7.246;2023-11-21T10:56:19;28.27;;;18.33;;
68050;SDS011;54839;51.364;7.246;2023-11-21T10:58:49;35.10;;;20.27;;
68050;SDS011;54839;51.364;7.246;2023-11-21T11:01:17;26.53;;;17.70;;
68050;SDS011;54839;51.364;7.246;2023-11-21T11:03:45;30.47;;;18.13;;
68050;SDS011;54839;51.364;7.246;2023-11-21T11:06:12;42.27;;;21.27;;
68050;SDS011;54839;51.364;7.246;2023-11-21T11:08:40;35.43;;;18.80;;
68050;SDS011;54839;51.364;7.246;2023-11-21T11:11:06;36.07;;;22.83;;
68050;SDS011;54839;51.364;7.246;2023-11-21T11:13:32;36.53;;;22.13;;
68050;SDS011;54839;51.364;7.246;2023-11-21T11:15:59;37.30;;;21.87;;
68050;SDS011;54839;51.364;7.246;2023-11-21T11:18:27;41.10;;;20.60;;
68050;SDS011;54839;51.364;7.246;2023-11-21T11:20:54;40.40;;;23.17;;
68050;SDS011;54839;51.364;7.246;2023-11-21T11:32:12;36.90;;;22.03;;
68050;SDS011;54839;51.364;7.246;2023-11-21T11:35:42;44.80;;;27.33;;
68050;SDS011;54839;51.364;7.246;2023-11-21T11:37:53;45.90;;;27.87;;
68050;SDS011;54839;51.364;7.246;2023-11-21T11:40:19;48.40;;;27.13;;
68050;SDS011;54839;51.364;7.246;2023-11-21T11:42:57;50.70;;;25.80;;
68050;SDS011;54839;51.364;7.246;2023-11-21T11:45:32;41.30;;;22.67;;
68050;SDS011;54839;51.364;7.246;2023-11-21T11:47:59;46.77;;;25.40;;
68050;SDS011;54839;51.364;7.246;2023-11-21T11:50:26;47.10;;;27.83;;
68050;SDS011;54839;51.364;7.246;2023-11-21T11:52:55;48.90;;;26.30;;
68050;SDS011;54839;51.364;7.246;2023-11-21T11:55:36;47.23;;;25.60;;
68050;SDS011;54839;51.364;7.246;2023-11-21T11:58:04;53.37;;;25.70;;
68050;SDS011;54839;51.364;7.246;2023-11-21T12:02:58;55.13;;;26.03;;
68050;SDS011;54839;51.364;7.246;2023-11-21T12:05:28;52.30;;;27.50;;
68050;SDS011;54839;51.364;7.246;2023-11-21T12:07:57;57.43;;;27.60;;
68050;SDS011;54839;51.364;7.246;2023-11-21T12:10:29;59.30;;;25.53;;
68050;SDS011;54839;51.364;7.246;2023-11-21T12:13:11;41.70;;;22.30;;
68050;SDS011;54839;51.364;7.246;2023-11-21T12:15:39;57.87;;;28.20;;
68050;SDS011;54839;51.364;7.246;2023-11-21T12:18:06;61.60;;;31.80;;
68050;SDS011;54839;51.364;7.246;2023-11-21T12:20:32;54.97;;;28.50;;
68050;SDS011;54839;51.364;7.246;2023-11-21T12:23:03;58.27;;;26.73;;
68050;SDS011;54839;51.364;7.246;2023-11-21T12:25:30;48.73;;;26.67;;
68050;SDS011;54839;51.364;7.246;2023-11-21T12:27:57;55.33;;;28.47;;
68050;SDS011;54839;51.364;7.246;2023-11-21T12:30:26;54.97;;;27.70;;
68050;SDS011;54839;51.364;7.246;2023-11-21T12:33:00;51.90;;;29.47;;
68050;SDS011;54839;51.364;7.246;2023-11-21T12:35:31;55.50;;;27.50;;
68050;SDS011;54839;51.364;7.246;2023-11-21T12:37:59;53.93;;;26.17;;
68050;SDS011;54839;51.364;7.246;2023-11-21T12:40:25;53.63;;;28.33;;
68050;SDS011;54839;51.364;7.246;2023-11-21T12:42:52;57.07;;;27.40;;
68050;SDS011;54839;51.364;7.246;2023-11-21T12:45:20;51.07;;;26.83;;
68050;SDS011;54839;51.364;7.246;2023-11-21T12:48:25;52.50;;;28.00;;
68050;SDS011;54839;51.364;7.246;2023-11-21T12:50:49;54.70;;;28.40;;
68050;SDS011;54839;51.364;7.246;2023-11-21T12:53:18;49.33;;;29.63;;
68050;SDS011;54839;51.364;7.246;2023-11-21T12:55:44;48.97;;;29.53;;
68050;SDS011;54839;51.364;7.246;2023-11-21T12:58:15;52.03;;;30.87;;
68050;SDS011;54839;51.364;7.246;2023-11-21T13:00:44;47.10;;;28.93;;
68050;SDS011;54839;51.364;7.246;2023-11-21T13:03:13;43.87;;;26.13;;
68050;SDS011;54839;51.364;7.246;2023-11-21T13:05:45;40.00;;;24.57;;
68050;SDS011;54839;51.364;7.246;2023-11-21T13:08:15;34.30;;;23.47;;
68050;SDS011;54839;51.364;7.246;2023-11-21T13:10:44;33.50;;;23.30;;
68050;SDS011;54839;51.364;7.246;2023-11-21T13:13:12;36.00;;;23.70;;
68050;SDS011;54839;51.364;7.246;2023-11-21T13:18:14;43.97;;;26.73;;
68050;SDS011;54839;51.364;7.246;2023-11-21T13:20:40;37.10;;;24.37;;
68050;SDS011;54839;51.364;7.246;2023-11-21T13:23:08;37.70;;;22.50;;
68050;SDS011;54839;51.364;7.246;2023-11-21T13:25:36;28.07;;;21.43;;
68050;SDS011;54839;51.364;7.246;2023-11-21T13:28:03;29.10;;;21.73;;
68050;SDS011;54839;51.364;7.246;2023-11-21T13:30:29;32.03;;;20.97;;
68050;SDS011;54839;51.364;7.246;2023-11-21T13:32:58;28.57;;;20.80;;
68050;SDS011;54839;51.364;7.246;2023-11-21T13:35:31;26.10;;;17.53;;
68050;SDS011;54839;51.364;7.246;2023-11-21T13:38:12;24.53;;;16.57;;
68050;SDS011;54839;51.364;7.246;2023-11-21T13:40:40;28.07;;;20.57;;
68050;SDS011;54839;51.364;7.246;2023-11-21T13:43:09;32.07;;;20.80;;
68050;SDS011;54839;51.364;7.246;2023-11-21T13:45:38;31.07;;;20.40;;
68050;SDS011;54839;51.364;7.246;2023-11-21T13:48:05;18.23;;;15.00;;
68050;SDS011;54839;51.364;7.246;2023-11-21T13:50:35;20.17;;;14.30;;
68050;SDS011;54839;51.364;7.246;2023-11-21T13:53:13;19.67;;;15.23;;
68050;SDS011;54839;51.364;7.246;2023-11-21T13:55:51;22.33;;;16.57;;
68050;SDS011;54839;51.364;7.246;2023-11-21T13:58:23;21.17;;;16.30;;
68050;SDS011;54839;51.364;7.246;2023-11-21T14:01:07;22.90;;;15.17;;
68050;SDS011;54839;51.364;7.246;2023-11-21T14:03:51;29.00;;;19.13;;
68050;SDS011;54839;51.364;7.246;2023-11-21T14:06:22;23.30;;;18.40;;
68050;SDS011;54839;51.364;7.246;2023-11-21T14:08:56;24.07;;;17.50;;
68050;SDS011;54839;51.364;7.246;2023-11-21T14:11:22;24.20;;;18.70;;
68050;SDS011;54839;51.364;7.246;2023-11-21T14:13:47;23.53;;;18.00;;
68050;SDS011;54839;51.364;7.246;2023-11-21T14:16:13;25.40;;;18.57;;
68050;SDS011;54839;51.364;7.246;2023-11-21T14:18:41;25.80;;;17.80;;
68050;SDS011;54839;51.364;7.246;2023-11-21T14:21:18;26.10;;;21.10;;
68050;SDS011;54839;51.364;7.246;2023-11-21T14:23:43;33.70;;;21.90;;
68050;SDS011;54839;51.364;7.246;2023-11-21T14:26:10;28.90;;;20.30;;
68050;SDS011;54839;51.364;7.246;2023-11-21T14:28:39;26.10;;;18.77;;
68050;SDS011;54839;51.364;7.246;2023-11-21T14:31:04;25.33;;;17.50;;
68050;SDS011;54839;51.364;7.246;2023-11-21T14:33:30;24.03;;;16.50;;
68050;SDS011;54839;51.364;7.246;2023-11-21T14:35:55;24.90;;;16.20;;
68050;SDS011;54839;51.364;7.246;2023-11-21T14:38:22;21.40;;;16.40;;